sensor_id;sensor_type;location;lat;lon;timestamp;temperature;humidity
71188;DHT22;58893;53.130;8.158;2022-09-09T00:00:47;18.70;83.10
71188;DHT22;58893;53.130;8.158;2022-09-09T00:03:47;18.70;83.30
71188;DHT22;58893;53.130;8.158;2022-09-09T00:06:43;18.60;83.40
71188;DHT22;58893;53.130;8.158;2022-09-09T00:09:19;18.60;83.20
71188;DHT22;58893;53.130;8.158;2022-09-09T00:12:11;18.60;83.10
71188;DHT22;58893;53.130;8.158;2022-09-09T00:20:02;18.60;83.80
71188;DHT22;58893;53.130;8.158;2022-09-09T00:22:32;18.60;84.10
71188;DHT22;58893;53.130;8.158;2022-09-09T00:25:19;18.60;84.00
71188;DHT22;58893;53.130;8.158;2022-09-09T00:27:48;18.50;83.90
71188;DHT22;58893;53.130;8.158;2022-09-09T00:30:17;18.50;83.90
71188;DHT22;58893;53.130;8.158;2022-09-09T00:32:48;18.50;83.80
71188;DHT22;58893;53.130;8.158;2022-09-09T00:35:18;18.50;83.40
71188;DHT22;58893;53.130;8.158;2022-09-09T00:37:48;18.50;82.80
71188;DHT22;58893;53.130;8.158;2022-09-09T00:40:34;18.50;82.60
71188;DHT22;58893;53.130;8.158;2022-09-09T00:43:13;18.50;82.80
71188;DHT22;58893;53.130;8.158;2022-09-09T00:48:33;18.40;83.20
71188;DHT22;58893;53.130;8.158;2022-09-09T00:51:09;18.40;83.60
71188;DHT22;58893;53.130;8.158;2022-09-09T00:54:16;18.40;84.00
71188;DHT22;58893;53.130;8.158;2022-09-09T00:59:45;18.40;83.40
71188;DHT22;58893;53.130;8.158;2022-09-09T01:02:19;18.40;83.50
71188;DHT22;58893;53.130;8.158;2022-09-09T01:04:47;18.40;83.80
71188;DHT22;58893;53.130;8.158;2022-09-09T01:07:17;18.40;83.90
71188;DHT22;58893;53.130;8.158;2022-09-09T01:10:06;18.40;84.20
71188;DHT22;58893;53.130;8.158;2022-09-09T01:12:42;18.40;84.30
71188;DHT22;58893;53.130;8.158;2022-09-09T01:15:12;18.40;84.00
71188;DHT22;58893;53.130;8.158;2022-09-09T01:18:22;18.40;83.80
71188;DHT22;58893;53.130;8.158;2022-09-09T01:20:52;18.40;83.90
71188;DHT22;58893;53.130;8.158;2022-09-09T01:28:34;18.40;84.00
71188;DHT22;58893;53.130;8.158;2022-09-09T01:31:04;18.40;83.90
71188;DHT22;58893;53.130;8.158;2022-09-09T01:33:31;18.40;84.10
71188;DHT22;58893;53.130;8.158;2022-09-09T01:35:57;18.40;84.60
71188;DHT22;58893;53.130;8.158;2022-09-09T01:38:29;18.40;83.90
71188;DHT22;58893;53.130;8.158;2022-09-09T01:40:56;18.30;83.70
71188;DHT22;58893;53.130;8.158;2022-09-09T01:43:24;18.30;83.30
71188;DHT22;58893;53.130;8.158;2022-09-09T01:45:54;18.30;83.00
71188;DHT22;58893;53.130;8.158;2022-09-09T01:48:22;18.30;82.90
71188;DHT22;58893;53.130;8.158;2022-09-09T01:50:48;18.30;82.90
71188;DHT22;58893;53.130;8.158;2022-09-09T01:53:15;18.30;83.00
71188;DHT22;58893;53.130;8.158;2022-09-09T01:55:47;18.30;83.10
71188;DHT22;58893;53.130;8.158;2022-09-09T02:07:01;18.20;84.40
71188;DHT22;58893;53.130;8.158;2022-09-09T02:09:29;18.20;83.60
71188;DHT22;58893;53.130;8.158;2022-09-09T02:12:02;18.20;83.60
71188;DHT22;58893;53.130;8.158;2022-09-09T02:14:34;18.20;83.70
71188;DHT22;58893;53.130;8.158;2022-09-09T02:17:11;18.20;83.70
71188;DHT22;58893;53.130;8.158;2022-09-09T02:19:53;18.20;83.90
71188;DHT22;58893;53.130;8.158;2022-09-09T02:22:22;18.20;84.00
71188;DHT22;58893;53.130;8.158;2022-09-09T02:24:51;18.20;84.20
71188;DHT22;58893;53.130;8.158;2022-09-09T02:27:20;18.20;84.30
71188;DHT22;58893;53.130;8.158;2022-09-09T02:29:47;18.20;84.20
71188;DHT22;58893;53.130;8.158;2022-09-09T02:32:22;18.20;84.00
71188;DHT22;58893;53.130;8.158;2022-09-09T02:35:02;18.20;83.60
71188;DHT22;58893;53.130;8.158;2022-09-09T02:37:34;18.20;83.10
71188;DHT22;58893;53.130;8.158;2022-09-09T02:40:10;18.10;82.40
71188;DHT22;58893;53.130;8.158;2022-09-09T02:42:44;18.10;81.90
71188;DHT22;58893;53.130;8.158;2022-09-09T02:45:14;18.10;81.60
71188;DHT22;58893;53.130;8.158;2022-09-09T02:50:37;18.00;81.80
71188;DHT22;58893;53.130;8.158;2022-09-09T02:53:32;18.10;82.20
71188;DHT22;58893;53.130;8.158;2022-09-09T02:56:09;18.10;82.40
71188;DHT22;58893;53.130;8.158;2022-09-09T02:58:39;18.10;82.60
71188;DHT22;58893;53.130;8.158;2022-09-09T03:01:05;18.10;82.80
71188;DHT22;58893;53.130;8.158;2022-09-09T03:03:31;18.10;82.80
71188;DHT22;58893;53.130;8.158;2022-09-09T03:05:57;18.00;82.70
71188;DHT22;58893;53.130;8.158;2022-09-09T03:08:23;18.10;82.70
71188;DHT22;58893;53.130;8.158;2022-09-09T03:10:49;18.10;82.60
71188;DHT22;58893;53.130;8.158;2022-09-09T03:13:14;18.00;82.50
71188;DHT22;58893;53.130;8.158;2022-09-09T03:15:40;18.10;82.70
71188;DHT22;58893;53.130;8.158;2022-09-09T03:18:06;18.10;83.00
71188;DHT22;58893;53.130;8.158;2022-09-09T03:20:32;18.10;83.20
71188;DHT22;58893;53.130;8.158;2022-09-09T03:22:59;18.10;83.50
71188;DHT22;58893;53.130;8.158;2022-09-09T03:25:25;18.10;83.70
71188;DHT22;58893;53.130;8.158;2022-09-09T03:27:53;18.10;83.80
71188;DHT22;58893;53.130;8.158;2022-09-09T03:30:23;18.10;83.90
71188;DHT22;58893;53.130;8.158;2022-09-09T03:32:49;18.10;83.90
71188;DHT22;58893;53.130;8.158;2022-09-09T03:35:15;18.20;83.90
71188;DHT22;58893;53.130;8.158;2022-09-09T03:37:41;18.20;83.90
71188;DHT22;58893;53.130;8.158;2022-09-09T03:40:07;18.20;83.80
71188;DHT22;58893;53.130;8.158;2022-09-09T03:42:35;18.20;83.70
71188;DHT22;58893;53.130;8.158;2022-09-09T03:45:06;18.20;83.70
71188;DHT22;58893;53.130;8.158;2022-09-09T03:47:31;18.20;83.70
71188;DHT22;58893;53.130;8.158;2022-09-09T03:49:57;18.20;83.60
71188;DHT22;58893;53.130;8.158;2022-09-09T03:52:23;18.20;83.60
71188;DHT22;58893;53.130;8.158;2022-09-09T03:54:50;18.20;83.50
71188;DHT22;58893;53.130;8.158;2022-09-09T03:57:16;18.20;83.40
71188;DHT22;58893;53.130;8.158;2022-09-09T03:59:43;18.20;83.40
71188;DHT22;58893;53.130;8.158;2022-09-09T04:02:08;18.20;83.30
71188;DHT22;58893;53.130;8.158;2022-09-09T04:04:34;18.20;83.20
71188;DHT22;58893;53.130;8.158;2022-09-09T04:07:00;18.30;83.20
71188;DHT22;58893;53.130;8.158;2022-09-09T04:09:26;18.30;83.10
71188;DHT22;58893;53.130;8.158;2022-09-09T04:11:51;18.30;83.00
71188;DHT22;58893;53.130;8.158;2022-09-09T04:14:18;18.30;82.80
71188;DHT22;58893;53.130;8.158;2022-09-09T04:16:44;18.20;82.60
71188;DHT22;58893;53.130;8.158;2022-09-09T04:19:11;18.20;82.50
71188;DHT22;58893;53.130;8.158;2022-09-09T04:21:39;18.30;82.50
71188;DHT22;58893;53.130;8.158;2022-09-09T04:24:06;18.30;82.40
71188;DHT22;58893;53.130;8.158;2022-09-09T04:26:32;18.30;82.30
71188;DHT22;58893;53.130;8.158;2022-09-09T04:28:58;18.30;82.20
71188;DHT22;58893;53.130;8.158;2022-09-09T04:31:24;18.30;82.10
71188;DHT22;58893;53.130;8.158;2022-09-09T04:33:50;18.30;82.10
71188;DHT22;58893;53.130;8.158;2022-09-09T04:36:16;18.20;81.90
71188;DHT22;58893;53.130;8.158;2022-09-09T04:38:42;18.20;81.90
71188;DHT22;58893;53.130;8.158;2022-09-09T04:41:09;18.20;81.80
71188;DHT22;58893;53.130;8.158;2022-09-09T04:43:36;18.20;81.60
71188;DHT22;58893;53.130;8.158;2022-09-09T04:46:02;18.20;81.50
71188;DHT22;58893;53.130;8.158;2022-09-09T04:48:29;18.20;81.40
71188;DHT22;58893;53.130;8.158;2022-09-09T04:51:04;18.20;81.30
71188;DHT22;58893;53.130;8.158;2022-09-09T04:53:31;18.20;81.20
71188;DHT22;58893;53.130;8.158;2022-09-09T04:56:11;18.20;81.10
71188;DHT22;58893;53.130;8.158;2022-09-09T04:58:37;18.20;81.10
71188;DHT22;58893;53.130;8.158;2022-09-09T05:01:15;18.10;81.00
71188;DHT22;58893;53.130;8.158;2022-09-09T05:03:42;18.10;81.00
71188;DHT22;58893;53.130;8.158;2022-09-09T05:06:12;18.10;80.90
71188;DHT22;58893;53.130;8.158;2022-09-09T05:08:41;18.10;80.90
71188;DHT22;58893;53.130;8.158;2022-09-09T05:11:20;18.10;80.80
71188;DHT22;58893;53.130;8.158;2022-09-09T05:13:48;18.10;80.70
71188;DHT22;58893;53.130;8.158;2022-09-09T05:16:15;18.10;80.60
71188;DHT22;58893;53.130;8.158;2022-09-09T05:18:42;18.10;80.60
71188;DHT22;58893;53.130;8.158;2022-09-09T05:21:12;18.10;80.60
71188;DHT22;58893;53.130;8.158;2022-09-09T05:23:38;18.10;80.60
71188;DHT22;58893;53.130;8.158;2022-09-09T05:26:05;18.10;80.60
71188;DHT22;58893;53.130;8.158;2022-09-09T05:28:33;18.10;80.70
71188;DHT22;58893;53.130;8.158;2022-09-09T05:31:00;18.10;80.80
71188;DHT22;58893;53.130;8.158;2022-09-09T05:33:26;18.10;80.80
71188;DHT22;58893;53.130;8.158;2022-09-09T05:36:10;18.10;80.90
71188;DHT22;58893;53.130;8.158;2022-09-09T05:38:38;18.10;81.00
71188;DHT22;58893;53.130;8.158;2022-09-09T05:41:04;18.10;81.00
71188;DHT22;58893;53.130;8.158;2022-09-09T05:43:30;18.20;81.20
71188;DHT22;58893;53.130;8.158;2022-09-09T05:46:15;18.20;81.20
71188;DHT22;58893;53.130;8.158;2022-09-09T05:48:43;18.20;81.30
71188;DHT22;58893;53.130;8.158;2022-09-09T05:51:11;18.20;81.50
71188;DHT22;58893;53.130;8.158;2022-09-09T05:53:44;18.30;81.90
71188;DHT22;58893;53.130;8.158;2022-09-09T05:56:10;18.30;81.90
71188;DHT22;58893;53.130;8.158;2022-09-09T05:58:37;18.30;82.00
71188;DHT22;58893;53.130;8.158;2022-09-09T06:01:12;18.40;82.20
71188;DHT22;58893;53.130;8.158;2022-09-09T06:03:40;18.50;82.20
71188;DHT22;58893;53.130;8.158;2022-09-09T06:06:08;18.50;81.90
71188;DHT22;58893;53.130;8.158;2022-09-09T06:08:35;18.60;81.60
71188;DHT22;58893;53.130;8.158;2022-09-09T06:11:06;18.60;81.60
71188;DHT22;58893;53.130;8.158;2022-09-09T06:13:32;18.60;81.60
71188;DHT22;58893;53.130;8.158;2022-09-09T06:15:58;18.60;81.50
71188;DHT22;58893;53.130;8.158;2022-09-09T06:18:25;18.60;81.50
71188;DHT22;58893;53.130;8.158;2022-09-09T06:21:02;18.70;81.60
71188;DHT22;58893;53.130;8.158;2022-09-09T06:23:32;18.70;81.60
71188;DHT22;58893;53.130;8.158;2022-09-09T06:26:05;18.70;81.60
71188;DHT22;58893;53.130;8.158;2022-09-09T06:28:34;18.70;81.60
71188;DHT22;58893;53.130;8.158;2022-09-09T06:31:06;18.70;81.70
71188;DHT22;58893;53.130;8.158;2022-09-09T06:33:34;18.80;82.10
71188;DHT22;58893;53.130;8.158;2022-09-09T06:36:02;18.80;82.20
71188;DHT22;58893;53.130;8.158;2022-09-09T06:38:29;18.80;82.30
71188;DHT22;58893;53.130;8.158;2022-09-09T06:40:55;18.80;82.40
71188;DHT22;58893;53.130;8.158;2022-09-09T06:43:22;18.80;82.60
71188;DHT22;58893;53.130;8.158;2022-09-09T06:48:29;18.80;83.10
71188;DHT22;58893;53.130;8.158;2022-09-09T06:53:37;18.80;83.70
71188;DHT22;58893;53.130;8.158;2022-09-09T06:58:35;18.80;84.50
71188;DHT22;58893;53.130;8.158;2022-09-09T07:01:05;18.80;84.90
71188;DHT22;58893;53.130;8.158;2022-09-09T07:03:32;18.80;85.10
71188;DHT22;58893;53.130;8.158;2022-09-09T07:05:58;18.80;85.30
71188;DHT22;58893;53.130;8.158;2022-09-09T07:08:24;18.80;85.60
71188;DHT22;58893;53.130;8.158;2022-09-09T07:10:51;18.90;85.90
71188;DHT22;58893;53.130;8.158;2022-09-09T07:13:25;18.90;85.90
71188;DHT22;58893;53.130;8.158;2022-09-09T07:15:51;19.00;86.00
71188;DHT22;58893;53.130;8.158;2022-09-09T07:18:18;19.00;86.20
71188;DHT22;58893;53.130;8.158;2022-09-09T07:20:52;19.10;86.30
71188;DHT22;58893;53.130;8.158;2022-09-09T07:23:18;19.10;86.30
71188;DHT22;58893;53.130;8.158;2022-09-09T07:25:47;19.10;86.40
71188;DHT22;58893;53.130;8.158;2022-09-09T07:28:13;19.20;86.60
71188;DHT22;58893;53.130;8.158;2022-09-09T07:30:39;19.30;86.60
71188;DHT22;58893;53.130;8.158;2022-09-09T07:33:05;19.30;86.20
71188;DHT22;58893;53.130;8.158;2022-09-09T07:35:31;19.30;85.70
71188;DHT22;58893;53.130;8.158;2022-09-09T07:37:57;19.40;85.60
71188;DHT22;58893;53.130;8.158;2022-09-09T07:40:24;19.40;85.40
71188;DHT22;58893;53.130;8.158;2022-09-09T07:42:49;19.50;85.20
71188;DHT22;58893;53.130;8.158;2022-09-09T07:45:15;19.50;84.90
71188;DHT22;58893;53.130;8.158;2022-09-09T07:47:41;19.60;84.80
71188;DHT22;58893;53.130;8.158;2022-09-09T07:50:08;19.60;84.60
71188;DHT22;58893;53.130;8.158;2022-09-09T07:52:35;19.60;84.20
71188;DHT22;58893;53.130;8.158;2022-09-09T07:55:00;19.70;83.90
71188;DHT22;58893;53.130;8.158;2022-09-09T07:57:28;19.70;83.80
71188;DHT22;58893;53.130;8.158;2022-09-09T07:59:56;19.80;83.80
71188;DHT22;58893;53.130;8.158;2022-09-09T08:02:23;19.80;83.60
71188;DHT22;58893;53.130;8.158;2022-09-09T08:04:49;19.90;83.40
71188;DHT22;58893;53.130;8.158;2022-09-09T08:07:14;19.90;83.00
71188;DHT22;58893;53.130;8.158;2022-09-09T08:09:41;19.90;82.80
71188;DHT22;58893;53.130;8.158;2022-09-09T08:12:07;20.00;82.70
71188;DHT22;58893;53.130;8.158;2022-09-09T08:14:33;20.00;82.50
71188;DHT22;58893;53.130;8.158;2022-09-09T08:16:59;20.10;82.10
71188;DHT22;58893;53.130;8.158;2022-09-09T08:19:25;20.10;81.50
71188;DHT22;58893;53.130;8.158;2022-09-09T08:21:50;20.10;80.90
71188;DHT22;58893;53.130;8.158;2022-09-09T08:24:16;20.20;80.50
71188;DHT22;58893;53.130;8.158;2022-09-09T08:26:46;20.20;80.20
71188;DHT22;58893;53.130;8.158;2022-09-09T08:29:15;20.30;80.00
71188;DHT22;58893;53.130;8.158;2022-09-09T08:34:09;20.40;79.50
71188;DHT22;58893;53.130;8.158;2022-09-09T08:36:43;20.40;79.10
71188;DHT22;58893;53.130;8.158;2022-09-09T08:39:12;20.40;78.60
71188;DHT22;58893;53.130;8.158;2022-09-09T08:50:25;20.60;78.70
71188;DHT22;58893;53.130;8.158;2022-09-09T08:52:53;20.60;78.20
71188;DHT22;58893;53.130;8.158;2022-09-09T08:57:53;20.60;77.50
71188;DHT22;58893;53.130;8.158;2022-09-09T09:00:20;20.70;77.40
71188;DHT22;58893;53.130;8.158;2022-09-09T09:05:46;20.70;76.70
71188;DHT22;58893;53.130;8.158;2022-09-09T09:10:53;20.70;74.90
71188;DHT22;58893;53.130;8.158;2022-09-09T09:13:20;20.70;74.60
71188;DHT22;58893;53.130;8.158;2022-09-09T09:15:55;20.70;74.40
71188;DHT22;58893;53.130;8.158;2022-09-09T09:18:22;20.70;74.50
71188;DHT22;58893;53.130;8.158;2022-09-09T09:20:54;20.60;74.60
71188;DHT22;58893;53.130;8.158;2022-09-09T09:23:24;20.60;74.90
71188;DHT22;58893;53.130;8.158;2022-09-09T09:25:53;20.60;75.20
71188;DHT22;58893;53.130;8.158;2022-09-09T09:28:25;20.60;75.20
71188;DHT22;58893;53.130;8.158;2022-09-09T09:30:59;20.60;75.30
71188;DHT22;58893;53.130;8.158;2022-09-09T09:33:33;20.70;75.50
71188;DHT22;58893;53.130;8.158;2022-09-09T09:36:01;20.70;75.70
71188;DHT22;58893;53.130;8.158;2022-09-09T09:38:28;20.70;75.50
71188;DHT22;58893;53.130;8.158;2022-09-09T09:40:58;20.70;75.60
71188;DHT22;58893;53.130;8.158;2022-09-09T09:43:34;20.70;75.60
71188;DHT22;58893;53.130;8.158;2022-09-09T09:46:03;20.70;76.00
71188;DHT22;58893;53.130;8.158;2022-09-09T09:48:29;20.70;76.10
71188;DHT22;58893;53.130;8.158;2022-09-09T09:51:08;20.80;75.90
71188;DHT22;58893;53.130;8.158;2022-09-09T09:53:36;20.80;75.80
71188;DHT22;58893;53.130;8.158;2022-09-09T09:56:11;20.80;75.50
71188;DHT22;58893;53.130;8.158;2022-09-09T10:01:39;20.80;75.20
71188;DHT22;58893;53.130;8.158;2022-09-09T10:04:18;20.90;75.10
71188;DHT22;58893;53.130;8.158;2022-09-09T10:06:46;20.90;75.40
71188;DHT22;58893;53.130;8.158;2022-09-09T10:09:38;20.90;75.50
71188;DHT22;58893;53.130;8.158;2022-09-09T10:12:47;20.90;75.20
71188;DHT22;58893;53.130;8.158;2022-09-09T10:26:35;20.90;74.10
71188;DHT22;58893;53.130;8.158;2022-09-09T10:29:18;20.90;73.80
71188;DHT22;58893;53.130;8.158;2022-09-09T10:37:52;21.00;72.70
71188;DHT22;58893;53.130;8.158;2022-09-09T10:40:23;21.00;72.80
71188;DHT22;58893;53.130;8.158;2022-09-09T10:42:56;21.00;73.00
71188;DHT22;58893;53.130;8.158;2022-09-09T10:45:29;21.00;73.00
71188;DHT22;58893;53.130;8.158;2022-09-09T10:53:44;21.20;73.50
71188;DHT22;58893;53.130;8.158;2022-09-09T10:56:16;21.20;73.30
71188;DHT22;58893;53.130;8.158;2022-09-09T10:59:09;21.20;73.50
71188;DHT22;58893;53.130;8.158;2022-09-09T11:01:40;21.20;73.70
71188;DHT22;58893;53.130;8.158;2022-09-09T11:04:26;21.30;74.10
71188;DHT22;58893;53.130;8.158;2022-09-09T11:06:56;21.20;73.80
71188;DHT22;58893;53.130;8.158;2022-09-09T11:09:26;21.30;73.20
71188;DHT22;58893;53.130;8.158;2022-09-09T11:11:55;21.30;72.60
71188;DHT22;58893;53.130;8.158;2022-09-09T11:14:43;21.30;71.90
71188;DHT22;58893;53.130;8.158;2022-09-09T11:17:15;21.30;71.50
71188;DHT22;58893;53.130;8.158;2022-09-09T11:19:43;21.40;71.40
71188;DHT22;58893;53.130;8.158;2022-09-09T11:22:25;21.30;72.00
71188;DHT22;58893;53.130;8.158;2022-09-09T11:30:22;21.40;71.90
71188;DHT22;58893;53.130;8.158;2022-09-09T11:32:59;21.40;72.50
71188;DHT22;58893;53.130;8.158;2022-09-09T11:38:27;21.40;72.60
71188;DHT22;58893;53.130;8.158;2022-09-09T11:40:58;21.50;72.70
71188;DHT22;58893;53.130;8.158;2022-09-09T11:43:30;21.50;72.50
71188;DHT22;58893;53.130;8.158;2022-09-09T11:45:59;21.50;72.50
71188;DHT22;58893;53.130;8.158;2022-09-09T11:48:39;21.50;72.80
71188;DHT22;58893;53.130;8.158;2022-09-09T11:53:50;21.50;71.90
71188;DHT22;58893;53.130;8.158;2022-09-09T11:56:43;21.50;71.30
71188;DHT22;58893;53.130;8.158;2022-09-09T11:59:31;21.50;71.00
71188;DHT22;58893;53.130;8.158;2022-09-09T12:01:57;21.50;70.80
71188;DHT22;58893;53.130;8.158;2022-09-09T12:14:44;21.60;70.50
71188;DHT22;58893;53.130;8.158;2022-09-09T12:17:21;21.60;70.40
71188;DHT22;58893;53.130;8.158;2022-09-09T12:19:48;21.60;70.80
71188;DHT22;58893;53.130;8.158;2022-09-09T12:25:30;21.60;73.30
71188;DHT22;58893;53.130;8.158;2022-09-09T12:28:18;21.60;74.70
71188;DHT22;58893;53.130;8.158;2022-09-09T12:33:20;21.60;77.00
71188;DHT22;58893;53.130;8.158;2022-09-09T12:35:54;21.50;78.00
71188;DHT22;58893;53.130;8.158;2022-09-09T12:38:47;21.50;78.60
71188;DHT22;58893;53.130;8.158;2022-09-09T12:43:46;21.50;80.40
71188;DHT22;58893;53.130;8.158;2022-09-09T12:46:26;21.50;81.20
71188;DHT22;58893;53.130;8.158;2022-09-09T12:48:54;21.50;82.90
71188;DHT22;58893;53.130;8.158;2022-09-09T12:51:28;21.40;83.10
71188;DHT22;58893;53.130;8.158;2022-09-09T12:53:56;21.40;84.00
71188;DHT22;58893;53.130;8.158;2022-09-09T12:56:24;21.40;84.60
71188;DHT22;58893;53.130;8.158;2022-09-09T12:58:54;21.40;84.90
71188;DHT22;58893;53.130;8.158;2022-09-09T13:01:27;21.40;82.80
71188;DHT22;58893;53.130;8.158;2022-09-09T13:03:54;21.40;81.00
71188;DHT22;58893;53.130;8.158;2022-09-09T13:06:22;21.30;79.80
71188;DHT22;58893;53.130;8.158;2022-09-09T13:08:52;21.30;79.10
71188;DHT22;58893;53.130;8.158;2022-09-09T13:11:46;21.30;79.10
71188;DHT22;58893;53.130;8.158;2022-09-09T13:14:29;21.30;79.10
71188;DHT22;58893;53.130;8.158;2022-09-09T13:17:00;21.30;79.10
71188;DHT22;58893;53.130;8.158;2022-09-09T13:19:29;21.30;78.50
71188;DHT22;58893;53.130;8.158;2022-09-09T13:21:57;21.30;77.50
71188;DHT22;58893;53.130;8.158;2022-09-09T13:24:31;21.30;76.10
71188;DHT22;58893;53.130;8.158;2022-09-09T13:27:03;21.30;75.20
71188;DHT22;58893;53.130;8.158;2022-09-09T13:29:31;21.20;74.10
71188;DHT22;58893;53.130;8.158;2022-09-09T13:32:18;21.30;73.80
71188;DHT22;58893;53.130;8.158;2022-09-09T13:34:54;21.30;73.40
71188;DHT22;58893;53.130;8.158;2022-09-09T13:37:46;21.30;73.20
71188;DHT22;58893;53.130;8.158;2022-09-09T13:40:20;21.30;73.10
71188;DHT22;58893;53.130;8.158;2022-09-09T13:42:50;21.30;73.10
71188;DHT22;58893;53.130;8.158;2022-09-09T13:45:18;21.30;73.10
71188;DHT22;58893;53.130;8.158;2022-09-09T13:47:48;21.40;73.10
71188;DHT22;58893;53.130;8.158;2022-09-09T13:50:22;21.40;72.90
71188;DHT22;58893;53.130;8.158;2022-09-09T13:52:49;21.40;72.80
71188;DHT22;58893;53.130;8.158;2022-09-09T13:55:17;21.40;72.90
71188;DHT22;58893;53.130;8.158;2022-09-09T13:57:56;21.50;73.30
71188;DHT22;58893;53.130;8.158;2022-09-09T14:00:23;21.50;73.80
71188;DHT22;58893;53.130;8.158;2022-09-09T14:02:49;21.50;73.40
71188;DHT22;58893;53.130;8.158;2022-09-09T14:05:16;21.60;73.50
71188;DHT22;58893;53.130;8.158;2022-09-09T14:07:43;21.60;73.40
71188;DHT22;58893;53.130;8.158;2022-09-09T14:10:09;21.60;73.30
71188;DHT22;58893;53.130;8.158;2022-09-09T14:12:35;21.60;73.10
71188;DHT22;58893;53.130;8.158;2022-09-09T14:15:02;21.60;72.70
71188;DHT22;58893;53.130;8.158;2022-09-09T14:17:28;21.60;72.40
71188;DHT22;58893;53.130;8.158;2022-09-09T14:19:55;21.60;71.80
71188;DHT22;58893;53.130;8.158;2022-09-09T14:22:22;21.60;71.50
71188;DHT22;58893;53.130;8.158;2022-09-09T14:24:48;21.60;71.60
71188;DHT22;58893;53.130;8.158;2022-09-09T14:27:14;21.60;71.10
71188;DHT22;58893;53.130;8.158;2022-09-09T14:29:40;21.60;70.50
71188;DHT22;58893;53.130;8.158;2022-09-09T14:32:06;21.60;70.10
71188;DHT22;58893;53.130;8.158;2022-09-09T14:34:31;21.60;69.60
71188;DHT22;58893;53.130;8.158;2022-09-09T14:36:58;21.60;69.10
71188;DHT22;58893;53.130;8.158;2022-09-09T14:39:23;21.60;69.00
71188;DHT22;58893;53.130;8.158;2022-09-09T14:41:49;21.50;69.00
71188;DHT22;58893;53.130;8.158;2022-09-09T14:44:15;21.50;68.70
71188;DHT22;58893;53.130;8.158;2022-09-09T14:46:41;21.50;68.60
71188;DHT22;58893;53.130;8.158;2022-09-09T14:49:08;21.50;68.20
71188;DHT22;58893;53.130;8.158;2022-09-09T14:51:36;21.40;67.90
71188;DHT22;58893;53.130;8.158;2022-09-09T14:54:02;21.50;68.20
71188;DHT22;58893;53.130;8.158;2022-09-09T14:56:30;21.50;68.00
71188;DHT22;58893;53.130;8.158;2022-09-09T14:58:57;21.40;67.90
71188;DHT22;58893;53.130;8.158;2022-09-09T15:01:23;21.40;68.10
71188;DHT22;58893;53.130;8.158;2022-09-09T15:04:00;21.40;68.20
71188;DHT22;58893;53.130;8.158;2022-09-09T15:06:28;21.40;68.30
71188;DHT22;58893;53.130;8.158;2022-09-09T15:08:54;21.40;68.40
71188;DHT22;58893;53.130;8.158;2022-09-09T15:11:23;21.30;68.40
71188;DHT22;58893;53.130;8.158;2022-09-09T15:13:51;21.30;68.40
71188;DHT22;58893;53.130;8.158;2022-09-09T15:16:21;21.30;68.40
71188;DHT22;58893;53.130;8.158;2022-09-09T15:18:51;21.30;68.40
71188;DHT22;58893;53.130;8.158;2022-09-09T15:21:18;21.20;68.40
71188;DHT22;58893;53.130;8.158;2022-09-09T15:23:44;21.30;68.70
71188;DHT22;58893;53.130;8.158;2022-09-09T15:26:11;21.30;68.70
71188;DHT22;58893;53.130;8.158;2022-09-09T15:28:39;21.30;68.60
71188;DHT22;58893;53.130;8.158;2022-09-09T15:31:09;21.20;68.20
71188;DHT22;58893;53.130;8.158;2022-09-09T15:33:36;21.20;68.20
71188;DHT22;58893;53.130;8.158;2022-09-09T15:38:40;21.20;68.40
71188;DHT22;58893;53.130;8.158;2022-09-09T15:41:06;21.20;68.40
71188;DHT22;58893;53.130;8.158;2022-09-09T15:43:31;21.10;68.00
71188;DHT22;58893;53.130;8.158;2022-09-09T15:46:05;21.10;67.80
71188;DHT22;58893;53.130;8.158;2022-09-09T15:48:33;21.10;67.30
71188;DHT22;58893;53.130;8.158;2022-09-09T15:51:04;21.10;66.40
71188;DHT22;58893;53.130;8.158;2022-09-09T15:53:30;21.10;65.70
71188;DHT22;58893;53.130;8.158;2022-09-09T15:55:57;21.10;64.70
71188;DHT22;58893;53.130;8.158;2022-09-09T15:58:23;21.10;64.30
71188;DHT22;58893;53.130;8.158;2022-09-09T16:00:49;21.10;64.20
71188;DHT22;58893;53.130;8.158;2022-09-09T16:03:14;21.10;64.20
71188;DHT22;58893;53.130;8.158;2022-09-09T16:05:40;21.10;64.20
71188;DHT22;58893;53.130;8.158;2022-09-09T16:08:06;21.10;64.30
71188;DHT22;58893;53.130;8.158;2022-09-09T16:10:32;21.10;64.20
71188;DHT22;58893;53.130;8.158;2022-09-09T16:12:57;21.10;64.20
71188;DHT22;58893;53.130;8.158;2022-09-09T16:15:24;21.20;64.30
71188;DHT22;58893;53.130;8.158;2022-09-09T16:17:55;21.20;64.30
71188;DHT22;58893;53.130;8.158;2022-09-09T16:20:21;21.20;64.40
71188;DHT22;58893;53.130;8.158;2022-09-09T16:22:47;21.20;64.40
71188;DHT22;58893;53.130;8.158;2022-09-09T16:25:12;21.20;64.50
71188;DHT22;58893;53.130;8.158;2022-09-09T16:27:38;21.20;64.70
71188;DHT22;58893;53.130;8.158;2022-09-09T16:30:04;21.20;64.60
71188;DHT22;58893;53.130;8.158;2022-09-09T16:32:29;21.20;64.40
71188;DHT22;58893;53.130;8.158;2022-09-09T16:34:55;21.20;64.40
71188;DHT22;58893;53.130;8.158;2022-09-09T16:37:21;21.20;64.50
71188;DHT22;58893;53.130;8.158;2022-09-09T16:39:47;21.20;64.70
71188;DHT22;58893;53.130;8.158;2022-09-09T16:42:12;21.20;64.90
71188;DHT22;58893;53.130;8.158;2022-09-09T16:44:38;21.20;65.20
71188;DHT22;58893;53.130;8.158;2022-09-09T16:47:03;21.20;65.60
71188;DHT22;58893;53.130;8.158;2022-09-09T16:49:29;21.20;66.00
71188;DHT22;58893;53.130;8.158;2022-09-09T16:51:57;21.20;66.40
71188;DHT22;58893;53.130;8.158;2022-09-09T16:54:23;21.20;66.90
71188;DHT22;58893;53.130;8.158;2022-09-09T16:56:52;21.20;67.50
71188;DHT22;58893;53.130;8.158;2022-09-09T16:59:20;21.20;68.10
71188;DHT22;58893;53.130;8.158;2022-09-09T17:01:48;21.20;69.10
71188;DHT22;58893;53.130;8.158;2022-09-09T17:04:17;21.20;70.40
71188;DHT22;58893;53.130;8.158;2022-09-09T17:06:47;21.20;71.30
71188;DHT22;58893;53.130;8.158;2022-09-09T17:09:14;21.10;72.10
71188;DHT22;58893;53.130;8.158;2022-09-09T17:11:41;21.10;72.70
71188;DHT22;58893;53.130;8.158;2022-09-09T17:14:08;21.00;73.50
71188;DHT22;58893;53.130;8.158;2022-09-09T17:16:35;21.00;74.20
71188;DHT22;58893;53.130;8.158;2022-09-09T17:19:01;20.90;74.60
71188;DHT22;58893;53.130;8.158;2022-09-09T17:21:30;20.90;75.20
71188;DHT22;58893;53.130;8.158;2022-09-09T17:23:57;20.80;75.50
71188;DHT22;58893;53.130;8.158;2022-09-09T17:26:26;20.80;75.80
71188;DHT22;58893;53.130;8.158;2022-09-09T17:28:52;20.70;75.80
71188;DHT22;58893;53.130;8.158;2022-09-09T17:31:18;20.70;76.00
71188;DHT22;58893;53.130;8.158;2022-09-09T17:33:47;20.60;76.30
71188;DHT22;58893;53.130;8.158;2022-09-09T17:36:23;20.60;76.60
71188;DHT22;58893;53.130;8.158;2022-09-09T17:38:50;20.50;76.80
71188;DHT22;58893;53.130;8.158;2022-09-09T17:41:19;20.50;77.00